createdAt,value
2023-03-12T00:00:55.233Z,6.20
2023-03-12T00:03:23.976Z,5.78
2023-03-12T00:05:51.373Z,5.55
2023-03-12T00:08:18.766Z,5.65
2023-03-12T00:10:46.453Z,5.37
2023-03-12T00:13:13.840Z,5.28
2023-03-12T00:15:41.270Z,4.93
2023-03-12T00:18:08.984Z,4.45
2023-03-12T00:20:36.347Z,4.80
2023-03-12T00:23:03.941Z,4.68
2023-03-12T00:25:31.704Z,4.78
2023-03-12T00:27:59.121Z,4.03
2023-03-12T00:30:28.348Z,4.53
2023-03-12T00:32:56.338Z,4.70
2023-03-12T00:35:23.743Z,4.03
2023-03-12T00:37:51.141Z,4.37
2023-03-12T00:40:18.986Z,4.22
2023-03-12T00:42:46.380Z,4.40
2023-03-12T00:45:13.809Z,4.72
2023-03-12T00:47:41.720Z,4.57
2023-03-12T00:50:09.704Z,5.07
2023-03-12T00:52:37.077Z,4.87
2023-03-12T00:55:05.170Z,4.95
2023-03-12T00:57:32.570Z,4.55
2023-03-12T01:00:00.014Z,4.68
2023-03-12T01:02:27.727Z,5.72
2023-03-12T01:04:55.105Z,4.80
2023-03-12T01:07:22.894Z,5.18
2023-03-12T01:09:50.535Z,5.45
2023-03-12T01:12:18.436Z,5.78
2023-03-12T01:14:45.827Z,5.43
2023-03-12T01:17:13.534Z,5.12
2023-03-12T01:19:40.918Z,5.40
2023-03-12T01:22:08.337Z,5.45
2023-03-12T01:24:36.006Z,5.72
2023-03-12T01:27:03.999Z,5.20
2023-03-12T01:29:31.421Z,5.20
2023-03-12T01:31:59.354Z,5.20
2023-03-12T01:34:26.752Z,5.45
2023-03-12T01:36:55.410Z,5.40
2023-03-12T01:39:23.123Z,6.10
2023-03-12T01:41:50.508Z,5.85
2023-03-12T01:44:17.946Z,6.45
2023-03-12T01:46:48.467Z,5.53
2023-03-12T01:49:18.959Z,5.85
2023-03-12T01:52:03.446Z,5.68
2023-03-12T01:54:36.595Z,5.40
2023-03-12T01:57:06.837Z,5.75
2023-03-12T01:59:39.600Z,6.30
2023-03-12T02:02:08.171Z,5.85
2023-03-12T02:04:37.096Z,6.03
2023-03-12T02:07:13.501Z,6.00
2023-03-12T02:09:44.300Z,5.70
2023-03-12T02:12:12.099Z,5.50
2023-03-12T02:14:39.729Z,6.12
2023-03-12T02:17:07.592Z,6.07
2023-03-12T02:19:52.150Z,7.35
2023-03-12T02:22:21.109Z,6.55
2023-03-12T02:24:53.239Z,7.05
2023-03-12T02:27:21.570Z,6.70
2023-03-12T02:29:49.733Z,6.53
2023-03-12T02:32:23.499Z,7.00
2023-03-12T02:34:51.190Z,7.80
2023-03-12T02:37:19.648Z,7.35
2023-03-12T02:40:06.049Z,8.23
2023-03-12T02:42:34.204Z,7.35
2023-03-12T02:45:02.305Z,7.22
2023-03-12T02:47:29.780Z,8.40
2023-03-12T02:49:57.451Z,7.60
2023-03-12T02:52:24.935Z,7.50
2023-03-12T02:54:52.384Z,8.10
2023-03-12T02:57:20.073Z,8.55
2023-03-12T02:59:47.491Z,8.82
2023-03-12T03:02:15.484Z,8.55
2023-03-12T03:04:43.483Z,8.10
2023-03-12T03:07:10.856Z,7.97
2023-03-12T03:09:38.300Z,8.77
2023-03-12T03:12:06.296Z,9.50
2023-03-12T03:14:34.006Z,8.88
2023-03-12T03:17:01.430Z,9.32
2023-03-12T03:19:29.124Z,9.27
2023-03-12T03:21:56.525Z,9.18
2023-03-12T03:24:23.943Z,8.88
2023-03-12T03:26:51.768Z,9.35
2023-03-12T03:29:19.338Z,9.40
2023-03-12T03:31:46.761Z,9.27
2023-03-12T03:34:14.468Z,9.32
2023-03-12T03:36:41.907Z,9.18
2023-03-12T03:39:09.714Z,9.00
2023-03-12T03:41:37.464Z,9.20
2023-03-12T03:44:05.479Z,9.85
2023-03-12T03:46:38.516Z,8.98
2023-03-12T03:49:06.697Z,9.25
2023-03-12T03:51:34.489Z,8.88
2023-03-12T03:54:02.310Z,10.23
2023-03-12T03:56:30.187Z,8.82
2023-03-12T03:58:58.350Z,8.73
2023-03-12T04:01:26.283Z,8.85
2023-03-12T04:03:55.270Z,8.75
2023-03-12T04:06:23.137Z,8.88
2023-03-12T04:08:50.908Z,8.35
2023-03-12T04:11:20.489Z,9.60
2023-03-12T04:13:48.377Z,9.15
2023-03-12T04:16:16.615Z,9.52
2023-03-12T04:18:45.107Z,9.75
2023-03-12T04:21:13.733Z,9.90
2023-03-12T04:23:41.840Z,9.88
2023-03-12T04:26:09.789Z,9.90
2023-03-12T04:28:37.747Z,9.40
2023-03-12T04:31:07.583Z,10.15
2023-03-12T04:33:37.052Z,10.48
2023-03-12T04:36:05.658Z,10.55
2023-03-12T04:38:33.593Z,10.60
2023-03-12T04:41:02.507Z,10.50
2023-03-12T04:43:30.913Z,10.60
2023-03-12T04:45:58.867Z,10.20
2023-03-12T04:48:27.052Z,10.82
2023-03-12T04:50:55.012Z,10.82
2023-03-12T04:53:23.113Z,10.65
2023-03-12T04:55:52.417Z,10.52
2023-03-12T04:58:20.719Z,10.98
2023-03-12T05:00:49.462Z,10.73
2023-03-12T05:03:18.182Z,10.18
2023-03-12T05:05:45.858Z,10.45
2023-03-12T05:08:13.281Z,10.45
2023-03-12T05:10:41.083Z,10.43
2023-03-12T05:13:19.678Z,10.57
2023-03-12T05:15:50.681Z,9.98
2023-03-12T05:18:20.574Z,10.80
2023-03-12T05:20:58.530Z,10.93
2023-03-12T05:23:26.037Z,9.63
2023-03-12T05:25:53.857Z,10.02
2023-03-12T05:28:21.910Z,10.43
2023-03-12T05:30:49.511Z,9.93
2023-03-12T05:33:17.222Z,11.07
2023-03-12T05:35:44.722Z,10.65
2023-03-12T05:38:12.141Z,11.10
2023-03-12T05:40:39.806Z,10.23
2023-03-12T05:43:07.229Z,11.10
2023-03-12T05:45:34.749Z,10.20
2023-03-12T05:48:03.078Z,11.18
2023-03-12T05:50:30.712Z,10.50
2023-03-12T05:52:58.156Z,11.50
2023-03-12T05:55:25.894Z,10.23
2023-03-12T05:57:54.220Z,10.35
2023-03-12T06:00:22.010Z,14.23
2023-03-12T06:02:51.217Z,11.38
2023-03-12T06:05:19.628Z,11.40
2023-03-12T06:07:47.083Z,10.95
2023-03-12T06:10:14.923Z,11.75
2023-03-12T06:12:42.442Z,10.85
2023-03-12T06:15:10.574Z,10.48
2023-03-12T06:17:38.484Z,10.82
2023-03-12T06:20:06.886Z,10.60
2023-03-12T06:22:34.652Z,10.05
2023-03-12T06:25:02.655Z,11.05
2023-03-12T06:27:30.101Z,10.73
2023-03-12T06:29:57.590Z,11.45
2023-03-12T06:32:26.110Z,11.32
2023-03-12T06:34:53.647Z,10.88
2023-03-12T06:37:21.089Z,10.55
2023-03-12T06:39:49.051Z,10.95
2023-03-12T06:42:19.653Z,10.32
2023-03-12T06:44:47.046Z,10.40
2023-03-12T06:47:17.432Z,11.20
2023-03-12T06:49:45.084Z,10.98
2023-03-12T06:52:12.520Z,10.77
2023-03-12T06:54:40.202Z,10.45
2023-03-12T06:57:07.623Z,10.35
2023-03-12T06:59:35.029Z,10.73
2023-03-12T07:02:02.856Z,9.95
2023-03-12T07:04:30.288Z,10.20
2023-03-12T07:06:57.690Z,10.63
2023-03-12T07:09:25.352Z,10.35
2023-03-12T07:11:52.712Z,10.07
2023-03-12T07:14:21.342Z,9.70
2023-03-12T07:16:49.043Z,10.55
2023-03-12T07:19:16.638Z,9.93
2023-03-12T07:21:44.028Z,9.65
2023-03-12T07:24:11.720Z,10.38
2023-03-12T07:26:40.033Z,10.35
2023-03-12T07:29:07.434Z,10.38
2023-03-12T07:31:35.218Z,9.77
2023-03-12T07:34:03.313Z,9.88
2023-03-12T07:36:31.030Z,9.90
2023-03-12T07:38:58.824Z,9.40
2023-03-12T07:41:26.220Z,9.60
2023-03-12T07:43:53.645Z,9.77
2023-03-12T07:46:21.674Z,9.55
2023-03-12T07:48:49.105Z,10.10
2023-03-12T07:51:16.558Z,10.40
2023-03-12T07:53:44.379Z,10.48
2023-03-12T07:56:11.934Z,9.75
2023-03-12T07:58:39.563Z,9.25
2023-03-12T08:01:07.593Z,9.68
2023-03-12T08:03:35.845Z,8.90
2023-03-12T08:06:04.554Z,9.32
2023-03-12T08:08:32.507Z,9.55
2023-03-12T08:11:00.634Z,9.45
2023-03-12T08:13:28.204Z,8.93
2023-03-12T08:15:55.865Z,8.90
2023-03-12T08:18:24.720Z,8.77
2023-03-12T08:20:54.134Z,8.65
2023-03-12T08:23:22.294Z,7.97
2023-03-12T08:25:50.877Z,8.70
2023-03-12T08:28:19.153Z,8.05
2023-03-12T08:30:51.915Z,8.00
2023-03-12T08:33:19.904Z,7.93
2023-03-12T08:35:47.586Z,7.22
2023-03-12T08:38:15.222Z,6.93
2023-03-12T08:40:42.954Z,8.45
2023-03-12T08:43:10.653Z,6.97
2023-03-12T08:45:38.093Z,6.97
2023-03-12T08:48:06.711Z,7.62
2023-03-12T08:50:34.071Z,5.75
2023-03-12T08:53:01.445Z,5.00
2023-03-12T08:55:29.140Z,5.07
2023-03-12T08:57:56.933Z,5.20
2023-03-12T09:00:25.145Z,5.12
2023-03-12T09:02:54.209Z,5.80
2023-03-12T09:05:21.740Z,6.75
2023-03-12T09:07:50.125Z,6.47
2023-03-12T09:10:18.291Z,5.78
2023-03-12T09:12:45.698Z,6.20
2023-03-12T09:15:13.186Z,6.00
2023-03-12T09:17:41.411Z,6.20
2023-03-12T09:20:13.984Z,6.07
2023-03-12T09:22:42.983Z,6.30
2023-03-12T09:25:11.273Z,5.97
2023-03-12T09:27:43.388Z,5.32
2023-03-12T09:30:16.862Z,5.32
2023-03-12T09:32:47.503Z,5.50
2023-03-12T09:35:16.043Z,5.10
2023-03-12T09:37:43.853Z,5.47
2023-03-12T09:40:17.094Z,5.65
2023-03-12T09:42:56.241Z,5.03
2023-03-12T09:45:30.757Z,6.18
2023-03-12T09:48:04.604Z,5.60
2023-03-12T09:50:40.712Z,5.78
2023-03-12T09:53:30.255Z,5.28
2023-03-12T09:55:58.918Z,5.32
2023-03-12T09:58:32.569Z,5.12
2023-03-12T10:01:25.744Z,4.80
2023-03-12T10:03:53.348Z,4.35
2023-03-12T10:06:23.425Z,4.80
2023-03-12T10:09:03.418Z,4.95
2023-03-12T10:11:52.524Z,4.62
2023-03-12T10:14:30.002Z,4.90
2023-03-12T10:17:39.969Z,4.55
2023-03-12T10:20:50.499Z,5.00
2023-03-12T10:23:57.315Z,4.18
2023-03-12T10:26:27.123Z,4.15
2023-03-12T10:29:01.084Z,4.30
2023-03-12T10:31:43.222Z,4.20
2023-03-12T10:34:49.502Z,4.37
2023-03-12T10:37:25.964Z,4.45
2023-03-12T10:39:55.671Z,4.25
2023-03-12T10:42:28.340Z,4.62
2023-03-12T10:45:01.519Z,5.25
2023-03-12T10:47:34.732Z,5.22
2023-03-12T10:50:15.065Z,4.25
2023-03-12T10:52:43.510Z,5.15
2023-03-12T10:55:21.143Z,4.75
2023-03-12T10:57:49.122Z,5.60
2023-03-12T11:00:24.852Z,4.62
2023-03-12T11:03:01.100Z,3.90
2023-03-12T11:05:49.038Z,3.65
2023-03-12T11:08:27.245Z,3.78
2023-03-12T11:10:57.192Z,3.35
2023-03-12T11:13:41.752Z,3.62
2023-03-12T11:16:18.924Z,2.80
2023-03-12T11:19:01.577Z,3.50
2023-03-12T11:21:38.331Z,2.75
2023-03-12T11:24:13.680Z,2.40
2023-03-12T11:26:56.857Z,3.95
2023-03-12T11:29:27.523Z,3.03
2023-03-12T11:32:18.625Z,3.08
2023-03-12T11:34:49.456Z,3.22
2023-03-12T11:37:49.304Z,4.22
2023-03-12T11:40:52.087Z,3.70
2023-03-12T11:43:40.230Z,2.87
2023-03-12T11:46:27.694Z,4.10
2023-03-12T11:48:58.526Z,2.72
2023-03-12T11:51:38.638Z,1.90
2023-03-12T11:54:09.080Z,1.90
2023-03-12T11:56:45.591Z,1.48
2023-03-12T11:59:41.666Z,2.00
2023-03-12T12:02:36.402Z,1.50
2023-03-12T12:05:23.445Z,1.70
2023-03-12T12:08:10.024Z,1.92
2023-03-12T12:10:58.956Z,1.92
2023-03-12T12:13:50.956Z,2.33
2023-03-12T12:16:22.338Z,1.90
2023-03-12T12:19:11.726Z,2.12
2023-03-12T12:21:58.140Z,1.92
2023-03-12T12:24:34.287Z,1.90
2023-03-12T12:27:23.857Z,2.05
2023-03-12T12:30:15.284Z,2.05
2023-03-12T12:33:04.040Z,2.30
2023-03-12T12:39:08.604Z,2.08
2023-03-12T12:41:40.368Z,3.22
2023-03-12T12:44:10.834Z,2.95
2023-03-12T12:46:52.714Z,3.00
2023-03-12T12:49:24.797Z,2.90
2023-03-12T12:52:00.294Z,2.40
2023-03-12T12:55:00.895Z,2.62
2023-03-12T12:57:38.641Z,2.55
2023-03-12T13:00:23.452Z,2.72
2023-03-12T13:02:51.972Z,3.12
2023-03-12T13:05:26.279Z,2.75
2023-03-12T13:07:54.489Z,2.65
2023-03-12T13:10:34.726Z,3.22
2023-03-12T13:13:13.597Z,3.00
2023-03-12T13:15:43.916Z,2.90
2023-03-12T13:18:22.984Z,2.67
2023-03-12T13:20:53.492Z,2.45
2023-03-12T13:23:58.860Z,2.60
2023-03-12T13:26:46.693Z,2.50
2023-03-12T13:29:24.137Z,2.33
2023-03-12T13:31:51.949Z,2.45
2023-03-12T13:34:19.777Z,2.67
2023-03-12T13:36:53.926Z,2.53
2023-03-12T13:39:35.986Z,2.45
2023-03-12T13:42:28.239Z,2.60
2023-03-12T13:44:56.557Z,3.22
2023-03-12T13:47:32.300Z,2.62
2023-03-12T13:50:03.842Z,2.33
2023-03-12T13:52:33.060Z,2.50
2023-03-12T13:55:11.995Z,2.62
2023-03-12T13:57:44.301Z,2.40
2023-03-12T14:00:20.918Z,2.60
2023-03-12T14:02:58.719Z,2.65
2023-03-12T14:05:27.590Z,8.98
2023-03-12T14:08:33.228Z,2.58
2023-03-12T14:11:18.617Z,2.15
2023-03-12T14:13:52.093Z,1.98
2023-03-12T14:16:49.631Z,2.00
2023-03-12T14:19:21.539Z,1.75
2023-03-12T14:21:50.784Z,2.00
2023-03-12T14:24:29.954Z,2.03
2023-03-12T14:27:05.547Z,2.25
2023-03-12T14:29:52.761Z,2.53
2023-03-12T14:32:28.494Z,2.95
2023-03-12T14:35:16.990Z,2.40
2023-03-12T14:38:33.845Z,2.30
2023-03-12T14:41:26.306Z,2.37
2023-03-12T14:44:04.484Z,3.10
2023-03-12T14:46:32.834Z,2.42
2023-03-12T14:49:00.766Z,2.50
2023-03-12T14:51:30.777Z,3.33
2023-03-12T14:54:03.481Z,2.42
2023-03-12T14:56:35.161Z,2.50
2023-03-12T14:59:23.370Z,2.05
2023-03-12T15:01:51.735Z,2.00
2023-03-12T15:04:22.332Z,2.10
2023-03-12T15:06:52.850Z,2.25
2023-03-12T15:09:26.977Z,2.10
2023-03-12T15:11:58.623Z,2.28
2023-03-12T15:14:29.536Z,2.55
2023-03-12T15:17:00.355Z,1.92
2023-03-12T15:19:34.364Z,2.15
2023-03-12T15:22:04.173Z,3.40
2023-03-12T15:24:38.608Z,2.20
2023-03-12T15:27:32.369Z,2.30
2023-03-12T15:30:01.568Z,1.83
2023-03-12T15:32:31.982Z,1.73
2023-03-12T15:35:12.710Z,2.10
2023-03-12T15:37:41.496Z,1.92
2023-03-12T15:40:27.801Z,2.00
2023-03-12T15:42:59.094Z,2.50
2023-03-12T15:45:46.202Z,2.47
2023-03-12T15:48:46.070Z,1.90
2023-03-12T15:51:27.095Z,1.95
2023-03-12T15:54:22.100Z,2.40
2023-03-12T15:56:50.244Z,2.15
2023-03-12T15:59:26.511Z,2.35
2023-03-12T16:01:57.228Z,2.30
2023-03-12T16:04:26.549Z,2.22
2023-03-12T16:06:54.777Z,2.17
2023-03-12T16:09:27.536Z,1.90
2023-03-12T16:11:58.361Z,1.98
2023-03-12T16:14:33.226Z,2.40
2023-03-12T16:17:01.633Z,2.30
2023-03-12T16:19:30.820Z,2.65
2023-03-12T16:21:58.876Z,2.90
2023-03-12T16:24:27.673Z,2.67
2023-03-12T16:26:57.765Z,2.58
2023-03-12T16:29:38.507Z,2.83
2023-03-12T16:32:16.553Z,3.25
2023-03-12T16:34:46.071Z,2.55
2023-03-12T16:37:15.542Z,3.08
2023-03-12T16:39:46.785Z,2.83
2023-03-12T16:42:18.017Z,2.85
2023-03-12T16:44:47.371Z,2.97
2023-03-12T16:47:16.416Z,2.45
2023-03-12T16:49:45.935Z,2.72
2023-03-12T16:52:24.860Z,2.20
2023-03-12T16:54:54.647Z,2.40
2023-03-12T16:57:38.421Z,2.70
2023-03-12T17:00:20.307Z,2.42
2023-03-12T17:02:49.694Z,2.83
2023-03-12T17:05:20.252Z,2.33
2023-03-12T17:07:48.216Z,2.40
2023-03-12T17:10:16.965Z,3.10
2023-03-12T17:12:48.195Z,2.37
2023-03-12T17:15:28.614Z,2.58
2023-03-12T17:17:59.592Z,2.75
2023-03-12T17:20:28.305Z,3.05
2023-03-12T17:22:57.360Z,3.08
2023-03-12T17:25:29.098Z,3.60
2023-03-12T17:27:58.294Z,3.10
2023-03-12T17:30:28.639Z,3.60
2023-03-12T17:33:09.901Z,3.42
2023-03-12T17:35:42.478Z,3.20
2023-03-12T17:38:12.279Z,4.00
2023-03-12T17:40:45.903Z,3.70
2023-03-12T17:43:15.780Z,3.08
2023-03-12T17:45:46.266Z,3.80
2023-03-12T17:48:16.464Z,3.30
2023-03-12T17:50:48.339Z,3.55
2023-03-12T17:53:17.076Z,3.60
2023-03-12T17:55:47.958Z,3.80
2023-03-12T17:58:20.854Z,3.62
2023-03-12T18:00:49.680Z,3.65
2023-03-12T18:03:18.850Z,4.05
2023-03-12T18:05:53.052Z,4.28
2023-03-12T18:08:22.443Z,3.65
2023-03-12T18:10:51.493Z,3.78
2023-03-12T18:13:20.407Z,3.05
2023-03-12T18:15:58.523Z,2.80
2023-03-12T18:18:28.688Z,3.47
2023-03-12T18:20:57.729Z,3.53
2023-03-12T18:23:25.980Z,3.70
2023-03-12T18:25:57.310Z,3.72
2023-03-12T18:28:26.509Z,3.60
2023-03-12T18:30:55.160Z,3.40
2023-03-12T18:33:28.098Z,3.85
2023-03-12T18:35:57.778Z,4.28
2023-03-12T18:38:26.803Z,4.43
2023-03-12T18:41:11.190Z,4.32
2023-03-12T18:43:40.935Z,5.30
2023-03-12T18:46:28.741Z,5.68
2023-03-12T18:48:58.342Z,7.03
2023-03-12T18:51:28.117Z,9.57
2023-03-12T18:53:57.095Z,14.35
2023-03-12T18:56:26.678Z,15.43
2023-03-12T18:58:59.555Z,16.70
2023-03-12T19:01:30.778Z,18.65
2023-03-12T19:03:59.032Z,19.23
2023-03-12T19:06:29.667Z,17.20
2023-03-12T19:09:01.890Z,19.92
2023-03-12T19:11:30.666Z,21.10
2023-03-12T19:14:03.864Z,22.55
2023-03-12T19:16:33.034Z,24.42
2023-03-12T19:19:02.220Z,22.73
2023-03-12T19:21:32.185Z,22.67
2023-03-12T19:24:01.502Z,23.45
2023-03-12T19:26:35.581Z,24.42
2023-03-12T19:29:09.829Z,27.58
2023-03-12T19:31:39.189Z,27.62
2023-03-12T19:34:10.226Z,30.02
2023-03-12T19:36:39.494Z,32.47
2023-03-12T19:39:15.249Z,36.72
2023-03-12T19:41:50.011Z,34.33
2023-03-12T19:44:19.730Z,34.30
2023-03-12T19:46:48.855Z,31.60
2023-03-12T19:49:17.536Z,31.12
2023-03-12T19:51:46.726Z,28.52
2023-03-12T19:54:16.047Z,25.83
2023-03-12T19:56:44.804Z,24.33
2023-03-12T19:59:32.064Z,23.83
2023-03-12T20:02:02.224Z,23.95
2023-03-12T20:04:31.856Z,21.92
2023-03-12T20:07:00.684Z,21.60
2023-03-12T20:09:29.608Z,21.60
2023-03-12T20:11:58.870Z,21.15
2023-03-12T20:14:29.007Z,20.62
2023-03-12T20:16:58.135Z,21.52
2023-03-12T20:19:27.116Z,20.48
2023-03-12T20:21:58.115Z,21.55
2023-03-12T20:24:29.692Z,20.60
2023-03-12T20:26:58.842Z,19.62
2023-03-12T20:29:28.326Z,19.92
2023-03-12T20:31:58.439Z,19.90
2023-03-12T20:34:29.531Z,18.02
2023-03-12T20:36:59.007Z,17.60
2023-03-12T20:39:28.421Z,16.00
2023-03-12T20:41:56.847Z,15.98
2023-03-12T20:44:27.680Z,13.98
2023-03-12T20:46:57.277Z,14.65
2023-03-12T20:49:28.851Z,14.43
2023-03-12T20:51:57.099Z,14.02
2023-03-12T20:54:28.081Z,13.10
2023-03-12T20:56:55.867Z,13.57
2023-03-12T20:59:24.461Z,12.77
2023-03-12T21:01:53.236Z,12.60
2023-03-12T21:04:22.130Z,13.00
2023-03-12T21:06:52.107Z,13.23
2023-03-12T21:09:22.656Z,14.20
2023-03-12T21:11:51.405Z,13.82
2023-03-12T21:14:19.763Z,15.38
2023-03-12T21:16:51.079Z,16.02
2023-03-12T21:19:19.456Z,16.95
2023-03-12T21:21:47.908Z,17.17
2023-03-12T21:24:15.546Z,15.98
2023-03-12T21:26:43.061Z,16.98
2023-03-12T21:29:11.928Z,17.42
2023-03-12T21:31:39.603Z,15.60
2023-03-12T21:34:09.379Z,14.63
2023-03-12T21:36:37.864Z,14.15
2023-03-12T21:39:06.041Z,13.75
2023-03-12T21:41:33.530Z,12.98
2023-03-12T21:44:02.360Z,11.57
2023-03-12T21:46:30.850Z,12.65
2023-03-12T21:48:59.094Z,11.55
2023-03-12T21:51:26.955Z,11.38
2023-03-12T21:53:58.229Z,13.70
2023-03-12T21:56:30.281Z,12.40
2023-03-12T21:58:58.257Z,12.23
2023-03-12T22:01:26.096Z,12.68
2023-03-12T22:03:53.982Z,11.60
2023-03-12T22:06:21.498Z,10.68
2023-03-12T22:08:49.352Z,10.82
2023-03-12T22:11:17.093Z,12.37
2023-03-12T22:13:44.708Z,12.10
2023-03-12T22:16:13.708Z,11.00
2023-03-12T22:18:47.818Z,11.77
2023-03-12T22:21:18.901Z,11.48
2023-03-12T22:23:53.727Z,11.45
2023-03-12T22:26:22.507Z,10.98
2023-03-12T22:28:52.043Z,10.75
2023-03-12T22:31:24.349Z,10.68
2023-03-12T22:33:52.174Z,10.77
2023-03-12T22:36:20.452Z,10.75
2023-03-12T22:38:47.907Z,10.65
2023-03-12T22:41:15.592Z,10.48
2023-03-12T22:43:43.440Z,10.60
2023-03-12T22:46:11.263Z,10.77
2023-03-12T22:48:38.981Z,10.15
2023-03-12T22:51:06.587Z,9.85
2023-03-12T22:53:34.208Z,9.65
2023-03-12T22:56:07.244Z,10.50
2023-03-12T22:58:34.636Z,9.90
2023-03-12T23:01:11.084Z,9.48
2023-03-12T23:03:39.929Z,9.40
2023-03-12T23:06:16.315Z,10.07
2023-03-12T23:08:46.141Z,9.68
2023-03-12T23:11:15.918Z,10.27
2023-03-12T23:13:44.901Z,10.55
2023-03-12T23:16:15.134Z,9.70
2023-03-12T23:18:43.448Z,9.25
2023-03-12T23:21:13.437Z,9.90
2023-03-12T23:23:43.555Z,9.23
2023-03-12T23:26:19.908Z,10.18
2023-03-12T23:31:16.106Z,9.60
2023-03-12T23:33:44.075Z,9.43
2023-03-12T23:36:14.568Z,9.43
2023-03-12T23:38:42.780Z,8.98
2023-03-12T23:41:14.706Z,9.90
2023-03-12T23:43:42.840Z,9.88
2023-03-12T23:46:11.235Z,9.00
2023-03-12T23:48:39.151Z,8.65
2023-03-12T23:51:14.992Z,8.55
2023-03-12T23:53:43.770Z,9.38
2023-03-12T23:56:16.615Z,9.05
2023-03-12T23:58:44.805Z,8.15
